Time;durP1;ratioP1;P1;durP2;ratioP2;P2;SDS_P1;SDS_P2;PMS_P1;PMS_P2;Temp;Humidity;BMP_temperature;BMP_pressure;BME280_temperature;BME280_humidity;BME280_pressure;Samples;Min_cycle;Max_cycle;Signal;HPM_P1;HPM_P2
2023/02/06 00:00:00;;;;;;;7.97;3.03;;;;;;;;;;5118006;27;20192;-44
2023/02/06 00:02:32;;;;;;;6.30;2.53;;;;;;;;;;5114795;27;20200;-44
2023/02/06 00:05:06;;;;;;;6.33;2.40;;;;;;;;;;5111348;27;20207;-44
2023/02/06 00:07:36;;;;;;;7.80;2.53;;;;;;;;;;5090564;27;20217;-44
2023/02/06 00:10:07;;;;;;;6.03;2.60;;;;;;;;;;5105893;27;20207;-44
2023/02/06 00:12:36;;;;;;;11.10;2.40;;;;;;;;;;5106025;27;20282;-44
2023/02/06 00:15:09;;;;;;;7.17;2.53;;;;;;;;;;5100758;27;20196;-44
2023/02/06 00:17:41;;;;;;;4.97;2.30;;;;;;;;;;5111059;27;20184;-44
2023/02/06 00:20:12;;;;;;;3.97;1.77;;;;;;;;;;5090132;28;20606;-44
2023/02/06 00:22:45;;;;;;;8.10;2.70;;;;;;;;;;5111144;27;20185;-44
2023/02/06 00:25:15;;;;;;;8.10;2.70;;;;;;;;;;5092940;28;20614;-44
2023/02/06 00:27:46;;;;;;;6.37;2.30;;;;;;;;;;5108840;27;20566;-44
2023/02/06 00:30:17;;;;;;;4.77;2.50;;;;;;;;;;5111359;27;20280;-44
2023/02/06 00:32:51;;;;;;;7.13;2.40;;;;;;;;;;5103217;27;20208;-44
2023/02/06 00:35:22;;;;;;;6.23;2.40;;;;;;;;;;5095203;28;20204;-44
2023/02/06 00:37:54;;;;;;;5.07;2.33;;;;;;;;;;5099048;28;20589;-44
2023/02/06 00:40:24;;;;;;;6.03;2.43;;;;;;;;;;5105866;28;20270;-44
2023/02/06 00:42:57;;;;;;;5.70;2.07;;;;;;;;;;5084201;28;20706;-44
2023/02/06 00:45:29;;;;;;;5.87;2.60;;;;;;;;;;5108929;28;20223;-44
2023/02/06 00:47:59;;;;;;;6.40;2.23;;;;;;;;;;5109963;28;20219;-44
2023/02/06 00:50:29;;;;;;;7.10;2.50;;;;;;;;;;5103669;28;20212;-44
2023/02/06 00:52:59;;;;;;;5.10;2.17;;;;;;;;;;5108563;28;20656;-44
2023/02/06 00:55:31;;;;;;;5.93;2.53;;;;;;;;;;5105288;28;20602;-44
2023/02/06 00:58:03;;;;;;;6.60;2.30;;;;;;;;;;5109891;28;20209;-44
2023/02/06 01:00:36;;;;;;;4.77;2.10;;;;;;;;;;5108613;28;20219;-44
2023/02/06 01:03:06;;;;;;;7.97;2.60;;;;;;;;;;5107557;27;20198;-44
2023/02/06 01:05:39;;;;;;;6.33;2.47;;;;;;;;;;5094156;28;20212;-44
2023/02/06 01:08:10;;;;;;;7.23;2.60;;;;;;;;;;5110710;27;20594;-44
2023/02/06 01:10:41;;;;;;;6.47;2.53;;;;;;;;;;5116994;27;20188;-44
2023/02/06 01:13:14;;;;;;;7.03;3.13;;;;;;;;;;5097586;28;20188;-44
2023/02/06 01:15:45;;;;;;;7.60;2.27;;;;;;;;;;5106793;28;20628;-44
2023/02/06 01:18:20;;;;;;;6.60;2.63;;;;;;;;;;5110605;27;20205;-44
2023/02/06 01:20:48;;;;;;;4.47;2.07;;;;;;;;;;5100058;27;20201;-44
2023/02/06 01:23:19;;;;;;;4.83;2.07;;;;;;;;;;5115177;27;20187;-44
2023/02/06 01:25:49;;;;;;;6.70;2.63;;;;;;;;;;5107359;28;20204;-44
2023/02/06 01:28:17;;;;;;;5.60;2.30;;;;;;;;;;5108650;27;20224;-44
2023/02/06 01:30:47;;;;;;;5.47;2.33;;;;;;;;;;5110548;27;20213;-44
2023/02/06 01:33:18;;;;;;;5.20;2.13;;;;;;;;;;5102929;27;20204;-44
2023/02/06 01:35:54;;;;;;;5.33;2.10;;;;;;;;;;5079559;28;20202;-44
2023/02/06 01:38:26;;;;;;;4.73;2.03;;;;;;;;;;5090008;28;20218;-44
2023/02/06 01:40:59;;;;;;;6.83;2.17;;;;;;;;;;5100690;27;20240;-44
2023/02/06 01:43:35;;;;;;;5.47;2.10;;;;;;;;;;5104658;28;20208;-44
2023/02/06 01:46:16;;;;;;;4.47;2.10;;;;;;;;;;5088372;28;20204;-44
2023/02/06 01:48:52;;;;;;;5.83;2.53;;;;;;;;;;5109747;27;20218;-44
2023/02/06 01:51:26;;;;;;;6.77;1.90;;;;;;;;;;5100970;27;20188;-44
2023/02/06 01:54:02;;;;;;;5.73;2.03;;;;;;;;;;5084914;28;20248;-44
2023/02/06 01:56:36;;;;;;;6.00;2.37;;;;;;;;;;5082696;28;20231;-44
2023/02/06 01:59:23;;;;;;;3.53;1.57;;;;;;;;;;5104196;27;20238;-44
2023/02/06 02:01:54;;;;;;;5.37;2.33;;;;;;;;;;5106986;27;20198;-44
2023/02/06 02:04:28;;;;;;;4.90;1.90;;;;;;;;;;5108914;28;20633;-44
2023/02/06 02:07:20;;;;;;;4.10;2.20;;;;;;;;;;5107069;27;20629;-44
2023/02/06 02:09:50;;;;;;;4.30;1.73;;;;;;;;;;5098243;28;20224;-44
2023/02/06 02:12:21;;;;;;;5.23;1.90;;;;;;;;;;5104457;27;20220;-44
2023/02/06 02:14:52;;;;;;;5.73;2.20;;;;;;;;;;5104688;28;20200;-44
2023/02/06 02:17:40;;;;;;;6.80;2.43;;;;;;;;;;5091251;28;20194;-44
2023/02/06 02:20:14;;;;;;;3.07;2.03;;;;;;;;;;5096515;28;20209;-44
2023/02/06 02:23:02;;;;;;;5.10;1.80;;;;;;;;;;5110746;27;20192;-44
2023/02/06 02:25:50;;;;;;;4.30;2.00;;;;;;;;;;5108328;27;20188;-44
2023/02/06 02:28:38;;;;;;;6.73;1.93;;;;;;;;;;5113064;27;20255;-44
2023/02/06 02:31:20;;;;;;;3.43;1.83;;;;;;;;;;5099759;28;20192;-44
2023/02/06 02:34:18;;;;;;;4.40;1.67;;;;;;;;;;5108693;28;20184;-44
2023/02/06 02:37:11;;;;;;;5.90;2.40;;;;;;;;;;5044307;28;20213;-44
2023/02/06 02:39:51;;;;;;;4.67;2.13;;;;;;;;;;5100855;28;20532;-44
2023/02/06 02:42:38;;;;;;;5.43;1.40;;;;;;;;;;5096503;28;20266;-44
2023/02/06 02:45:26;;;;;;;7.50;1.90;;;;;;;;;;5095742;28;20218;-44
2023/02/06 02:48:05;;;;;;;4.27;1.80;;;;;;;;;;5100879;28;20192;-44
2023/02/06 02:50:37;;;;;;;4.73;2.10;;;;;;;;;;5105193;28;20624;-44
2023/02/06 02:53:10;;;;;;;5.27;2.00;;;;;;;;;;5104356;28;20196;-44
2023/02/06 02:55:41;;;;;;;4.47;1.93;;;;;;;;;;5096790;28;20213;-44
2023/02/06 02:58:14;;;;;;;4.30;2.20;;;;;;;;;;5099459;28;20543;-44
2023/02/06 03:00:47;;;;;;;4.90;2.27;;;;;;;;;;5104251;28;20184;-44
2023/02/06 03:03:17;;;;;;;4.93;2.10;;;;;;;;;;5107096;27;20192;-44
2023/02/06 03:06:08;;;;;;;4.83;2.50;;;;;;;;;;5091128;28;20192;-44
2023/02/06 03:09:04;;;;;;;5.43;1.97;;;;;;;;;;5107794;27;20242;-44
2023/02/06 03:11:38;;;;;;;4.07;1.67;;;;;;;;;;5116450;27;20208;-44
2023/02/06 03:14:28;;;;;;;4.27;1.90;;;;;;;;;;5117579;27;20287;-44
2023/02/06 03:17:02;;;;;;;3.73;1.70;;;;;;;;;;5118096;27;20193;-44
2023/02/06 03:19:35;;;;;;;4.17;1.97;;;;;;;;;;5103395;28;20200;-44
2023/02/06 03:22:08;;;;;;;3.63;1.70;;;;;;;;;;5104161;27;20640;-44
2023/02/06 03:24:45;;;;;;;4.67;1.97;;;;;;;;;;5114254;28;20236;-44
2023/02/06 03:27:16;;;;;;;3.77;1.53;;;;;;;;;;5117764;27;21057;-44
2023/02/06 03:29:48;;;;;;;3.60;1.87;;;;;;;;;;5099268;28;20273;-44
2023/02/06 03:32:28;;;;;;;3.93;1.60;;;;;;;;;;5101406;27;20203;-43
2023/02/06 03:35:07;;;;;;;2.40;1.30;;;;;;;;;;5097738;28;20192;-44
2023/02/06 03:37:38;;;;;;;3.77;1.80;;;;;;;;;;5100926;27;20609;-44
2023/02/06 03:40:15;;;;;;;3.50;1.40;;;;;;;;;;5106851;27;20870;-44
2023/02/06 03:42:49;;;;;;;4.73;1.40;;;;;;;;;;5107491;27;20296;-44
2023/02/06 03:45:31;;;;;;;3.50;1.70;;;;;;;;;;5110910;27;20208;-44
2023/02/06 03:48:05;;;;;;;4.07;1.93;;;;;;;;;;5094632;28;20204;-44
2023/02/06 03:50:39;;;;;;;3.43;1.90;;;;;;;;;;5107634;28;20896;-44
2023/02/06 03:53:10;;;;;;;2.40;1.20;;;;;;;;;;5108933;28;20203;-44
2023/02/06 03:55:41;;;;;;;4.27;1.57;;;;;;;;;;5110338;27;20669;-44
2023/02/06 03:58:16;;;;;;;3.43;1.40;;;;;;;;;;5113046;27;20197;-44
2023/02/06 04:00:54;;;;;;;5.17;2.03;;;;;;;;;;5110448;27;20191;-44
2023/02/06 04:03:24;;;;;;;3.43;1.47;;;;;;;;;;5091212;28;20216;-44
2023/02/06 04:05:56;;;;;;;3.23;1.40;;;;;;;;;;5111076;27;20254;-44
2023/02/06 04:08:23;;;;;;;2.17;1.70;;;;;;;;;;5090080;28;20204;-44
2023/02/06 04:10:57;;;;;;;3.00;1.50;;;;;;;;;;5114172;27;20196;-44
2023/02/06 04:13:26;;;;;;;3.03;1.87;;;;;;;;;;5116295;27;20184;-44
2023/02/06 04:16:05;;;;;;;2.33;1.57;;;;;;;;;;5111167;28;20581;-44
2023/02/06 04:18:37;;;;;;;3.23;1.60;;;;;;;;;;5113464;27;20211;-44
2023/02/06 04:21:07;;;;;;;3.33;1.73;;;;;;;;;;5097266;28;20228;-44
2023/02/06 04:23:36;;;;;;;3.87;1.40;;;;;;;;;;5079675;28;20614;-44
2023/02/06 04:26:05;;;;;;;2.33;1.30;;;;;;;;;;5115211;27;20189;-44
2023/02/06 04:28:38;;;;;;;4.47;1.67;;;;;;;;;;5109250;27;20527;-44
2023/02/06 04:31:08;;;;;;;3.00;1.73;;;;;;;;;;5106303;27;20203;-44
2023/02/06 04:33:42;;;;;;;1.60;1.20;;;;;;;;;;5111272;28;20586;-44
2023/02/06 04:36:13;;;;;;;2.00;1.30;;;;;;;;;;5068615;28;20204;-44
2023/02/06 04:38:44;;;;;;;2.60;1.33;;;;;;;;;;5110532;28;20525;-44
2023/02/06 04:41:14;;;;;;;3.00;1.50;;;;;;;;;;5102036;28;20241;-44
2023/02/06 04:43:46;;;;;;;1.77;1.13;;;;;;;;;;5084165;28;20220;-44
2023/02/06 04:46:19;;;;;;;2.73;1.23;;;;;;;;;;5088638;28;20184;-44
2023/02/06 04:48:48;;;;;;;3.10;1.50;;;;;;;;;;5105063;28;20189;-44
2023/02/06 04:51:20;;;;;;;3.07;1.53;;;;;;;;;;5109788;28;20235;-44
2023/02/06 04:53:55;;;;;;;3.33;1.17;;;;;;;;;;5114280;28;20213;-44
2023/02/06 04:56:25;;;;;;;2.47;1.30;;;;;;;;;;5108845;28;20215;-44
2023/02/06 04:58:58;;;;;;;2.60;1.40;;;;;;;;;;5105221;28;20264;-44
2023/02/06 05:01:30;;;;;;;2.70;1.50;;;;;;;;;;5109412;27;20256;-44
2023/02/06 05:04:01;;;;;;;3.00;1.20;;;;;;;;;;5123640;27;20200;-44
2023/02/06 05:06:33;;;;;;;3.03;1.53;;;;;;;;;;5116836;27;20200;-44
2023/02/06 05:09:02;;;;;;;2.77;1.57;;;;;;;;;;5107862;27;20295;-44
2023/02/06 05:11:33;;;;;;;2.67;1.50;;;;;;;;;;5102501;28;20196;-44
2023/02/06 05:14:03;;;;;;;3.20;1.50;;;;;;;;;;5123149;27;20203;-44
2023/02/06 05:16:32;;;;;;;3.97;1.70;;;;;;;;;;5105735;27;20646;-44
2023/02/06 05:19:03;;;;;;;3.47;1.90;;;;;;;;;;5087581;28;20236;-44
2023/02/06 05:21:33;;;;;;;3.23;1.57;;;;;;;;;;5098097;27;20274;-44
2023/02/06 05:24:14;;;;;;;3.07;1.63;;;;;;;;;;5085905;28;20212;-44
2023/02/06 05:26:45;;;;;;;3.30;1.83;;;;;;;;;;5094931;28;20207;-44
2023/02/06 05:29:15;;;;;;;1.97;1.63;;;;;;;;;;5087244;27;20228;-44
2023/02/06 05:31:46;;;;;;;3.07;1.57;;;;;;;;;;5114931;27;20227;-44
2023/02/06 05:34:20;;;;;;;2.87;1.40;;;;;;;;;;5116518;27;20726;-44
2023/02/06 05:36:52;;;;;;;3.00;1.67;;;;;;;;;;5097896;27;20199;-44
2023/02/06 05:39:24;;;;;;;3.00;1.43;;;;;;;;;;5109549;27;20192;-44
2023/02/06 05:41:55;;;;;;;5.30;2.10;;;;;;;;;;5085733;27;20268;-44
2023/02/06 05:44:24;;;;;;;2.53;1.53;;;;;;;;;;5104028;27;20219;-44
2023/02/06 05:47:05;;;;;;;3.07;1.33;;;;;;;;;;5103972;27;20223;-44
2023/02/06 05:49:37;;;;;;;3.60;1.80;;;;;;;;;;5104457;27;20227;-44
2023/02/06 05:52:09;;;;;;;3.90;1.70;;;;;;;;;;5104653;27;20189;-44
2023/02/06 05:54:38;;;;;;;3.57;1.33;;;;;;;;;;5107381;28;20196;-44
2023/02/06 05:57:08;;;;;;;3.80;2.00;;;;;;;;;;5106455;27;20619;-44
2023/02/06 05:59:40;;;;;;;3.63;1.50;;;;;;;;;;5105236;28;20184;-44
2023/02/06 06:02:12;;;;;;;3.37;1.57;;;;;;;;;;5103329;28;20193;-44
2023/02/06 06:04:43;;;;;;;2.33;1.40;;;;;;;;;;5107789;27;20185;-44
2023/02/06 06:07:14;;;;;;;2.73;1.60;;;;;;;;;;5106032;27;20563;-44
2023/02/06 06:09:45;;;;;;;2.93;1.73;;;;;;;;;;5107780;28;20216;-44
2023/02/06 06:12:16;;;;;;;4.13;1.63;;;;;;;;;;5103696;27;20677;-44
2023/02/06 06:14:45;;;;;;;2.87;1.67;;;;;;;;;;5105502;27;20188;-44
2023/02/06 06:17:18;;;;;;;3.03;1.90;;;;;;;;;;5109569;28;20677;-44
2023/02/06 06:19:48;;;;;;;2.67;1.70;;;;;;;;;;5106578;28;20246;-44
2023/02/06 06:22:20;;;;;;;4.03;1.47;;;;;;;;;;5110846;28;20204;-44
2023/02/06 06:24:50;;;;;;;5.00;1.90;;;;;;;;;;5111013;27;20202;-44
2023/02/06 06:27:24;;;;;;;2.50;1.50;;;;;;;;;;5113796;27;20740;-44
2023/02/06 06:29:52;;;;;;;7.00;1.77;;;;;;;;;;5116872;27;20224;-44
2023/02/06 06:32:24;;;;;;;4.47;1.40;;;;;;;;;;5116085;28;20260;-44
2023/02/06 06:34:55;;;;;;;4.57;1.47;;;;;;;;;;5098541;28;20196;-44
2023/02/06 06:37:25;;;;;;;4.77;1.87;;;;;;;;;;5086361;28;20193;-44
2023/02/06 06:39:58;;;;;;;5.43;1.73;;;;;;;;;;5099781;27;20196;-44
2023/02/06 06:42:27;;;;;;;9.67;3.37;;;;;;;;;;5117105;28;20201;-44
2023/02/06 06:45:10;;;;;;;90.67;17.17;;;;;;;;;;5106356;28;20219;-44
2023/02/06 06:47:42;;;;;;;89.97;17.13;;;;;;;;;;5115118;28;20218;-44
2023/02/06 06:50:18;;;;;;;71.40;15.97;;;;;;;;;;5105982;28;20216;-45
2023/02/06 06:52:46;;;;;;;60.17;13.83;;;;;;;;;;5115117;28;20640;-43
2023/02/06 06:55:15;;;;;;;46.23;13.00;;;;;;;;;;5107149;28;20688;-44
2023/02/06 06:57:49;;;;;;;45.20;10.77;;;;;;;;;;5116949;28;20203;-44
2023/02/06 07:00:31;;;;;;;35.53;11.37;;;;;;;;;;5107621;27;20199;-45
2023/02/06 07:03:00;;;;;;;32.00;9.47;;;;;;;;;;5119300;27;20635;-45
2023/02/06 07:05:32;;;;;;;28.33;9.10;;;;;;;;;;5110632;27;20196;-46
2023/02/06 07:08:04;;;;;;;30.53;8.57;;;;;;;;;;5118429;27;20215;-45
2023/02/06 07:10:37;;;;;;;24.33;8.33;;;;;;;;;;5104906;27;20223;-45
2023/02/06 07:13:10;;;;;;;27.17;8.27;;;;;;;;;;5119360;27;20780;-48
2023/02/06 07:15:42;;;;;;;24.37;7.53;;;;;;;;;;5119671;27;20200;-47
2023/02/06 07:18:16;;;;;;;32.13;7.53;;;;;;;;;;5114344;27;20192;-44
2023/02/06 07:20:47;;;;;;;15.63;6.37;;;;;;;;;;5110759;27;20207;-48
2023/02/06 07:23:16;;;;;;;18.13;7.13;;;;;;;;;;5113223;27;20201;-48
2023/02/06 07:25:48;;;;;;;18.13;6.50;;;;;;;;;;5100275;27;20226;-48
2023/02/06 07:28:18;;;;;;;18.77;5.73;;;;;;;;;;5115467;27;20196;-49
2023/02/06 07:30:47;;;;;;;15.47;5.73;;;;;;;;;;5093237;28;20215;-48
2023/02/06 07:33:25;;;;;;;15.73;5.40;;;;;;;;;;5106642;28;20272;-48
2023/02/06 07:35:54;;;;;;;15.33;5.63;;;;;;;;;;5114037;28;20196;-49
2023/02/06 07:38:25;;;;;;;11.40;4.80;;;;;;;;;;5113588;28;20196;-48
2023/02/06 07:41:01;;;;;;;17.87;5.47;;;;;;;;;;5093672;28;20241;-46
2023/02/06 07:43:39;;;;;;;16.13;4.90;;;;;;;;;;5071861;28;20224;-45
2023/02/06 07:46:18;;;;;;;12.60;4.67;;;;;;;;;;5092702;28;20303;-45
2023/02/06 07:48:48;;;;;;;16.63;4.47;;;;;;;;;;5082601;28;20521;-45
2023/02/06 07:51:17;;;;;;;15.40;4.60;;;;;;;;;;5082561;28;20227;-44
2023/02/06 07:53:48;;;;;;;12.70;4.57;;;;;;;;;;5073335;28;20205;-45
2023/02/06 07:56:22;;;;;;;13.07;4.37;;;;;;;;;;5087346;28;20668;-45
2023/02/06 07:58:54;;;;;;;10.07;3.87;;;;;;;;;;5088457;28;20618;-45
2023/02/06 08:01:25;;;;;;;8.37;3.70;;;;;;;;;;5061216;28;20212;-48
2023/02/06 08:03:56;;;;;;;11.33;3.90;;;;;;;;;;5089807;28;20211;-49
2023/02/06 08:06:26;;;;;;;9.13;3.20;;;;;;;;;;5087767;28;20192;-48
2023/02/06 08:09:00;;;;;;;7.87;3.53;;;;;;;;;;5084093;28;20278;-47
2023/02/06 08:11:34;;;;;;;7.00;2.93;;;;;;;;;;5087620;28;20304;-47
2023/02/06 08:14:06;;;;;;;7.27;3.17;;;;;;;;;;5086206;28;20695;-48
2023/02/06 08:16:38;;;;;;;6.27;2.30;;;;;;;;;;5091557;28;20196;-45
2023/02/06 08:19:11;;;;;;;8.80;3.47;;;;;;;;;;5072954;28;20207;-45
2023/02/06 08:21:42;;;;;;;6.63;2.63;;;;;;;;;;5090131;28;20193;-45
2023/02/06 08:24:12;;;;;;;4.37;2.43;;;;;;;;;;5085182;28;20520;-45
2023/02/06 08:26:43;;;;;;;5.27;2.60;;;;;;;;;;5089124;28;20720;-48
2023/02/06 08:29:14;;;;;;;5.37;2.37;;;;;;;;;;5088281;28;20229;-49
2023/02/06 08:31:47;;;;;;;5.53;2.30;;;;;;;;;;5083708;28;20251;-49
2023/02/06 08:34:19;;;;;;;4.80;2.40;;;;;;;;;;5068544;28;20231;-49
2023/02/06 08:36:49;;;;;;;5.03;2.30;;;;;;;;;;5086962;28;20767;-49
2023/02/06 08:39:18;;;;;;;4.63;2.30;;;;;;;;;;5073306;28;20204;-49
2023/02/06 08:41:51;;;;;;;4.77;2.17;;;;;;;;;;5089838;28;20228;-49
2023/02/06 08:44:23;;;;;;;3.50;1.87;;;;;;;;;;5104775;27;20261;-48
2023/02/06 08:46:52;;;;;;;5.77;2.47;;;;;;;;;;5095745;28;20196;-49
2023/02/06 08:49:39;;;;;;;4.20;2.20;;;;;;;;;;5105867;28;20214;-49
2023/02/06 08:52:09;;;;;;;4.17;1.90;;;;;;;;;;5103299;28;20720;-49
2023/02/06 08:54:40;;;;;;;5.27;2.37;;;;;;;;;;5108836;28;20208;-50
2023/02/06 08:57:11;;;;;;;2.90;1.80;;;;;;;;;;5102513;27;20216;-49
2023/02/06 08:59:56;;;;;;;4.70;1.87;;;;;;;;;;5098879;28;20288;-48
2023/02/06 09:02:29;;;;;;;4.27;1.97;;;;;;;;;;5106411;28;20184;-49
2023/02/06 09:05:02;;;;;;;4.17;1.77;;;;;;;;;;5085148;28;20218;-50
2023/02/06 09:07:33;;;;;;;5.53;1.93;;;;;;;;;;5106061;28;20561;-46
2023/02/06 09:10:06;;;;;;;3.20;1.90;;;;;;;;;;5103847;28;20201;-45
2023/02/06 09:12:56;;;;;;;3.13;2.10;;;;;;;;;;5101699;28;20189;-45
2023/02/06 09:15:31;;;;;;;5.20;2.13;;;;;;;;;;5108806;28;20188;-45
2023/02/06 09:18:02;;;;;;;3.07;2.00;;;;;;;;;;5104119;28;20186;-46
2023/02/06 09:20:31;;;;;;;11.07;2.00;;;;;;;;;;5100798;28;20540;-45
2023/02/06 09:23:00;;;;;;;3.73;1.93;;;;;;;;;;5108140;28;20196;-46
2023/02/06 09:25:31;;;;;;;4.07;2.10;;;;;;;;;;5108823;28;20668;-45
2023/02/06 09:28:04;;;;;;;4.50;2.37;;;;;;;;;;5070915;28;20208;-45
2023/02/06 09:30:36;;;;;;;3.37;1.93;;;;;;;;;;5109496;28;20242;-49
2023/02/06 09:33:05;;;;;;;3.23;1.60;;;;;;;;;;5101125;27;20211;-49
2023/02/06 09:35:38;;;;;;;3.93;2.17;;;;;;;;;;5091787;28;20202;-49
2023/02/06 09:38:08;;;;;;;3.10;1.90;;;;;;;;;;5092322;28;20204;-49
2023/02/06 09:40:38;;;;;;;4.73;1.90;;;;;;;;;;5094718;28;20772;-48
2023/02/06 09:43:14;;;;;;;5.47;2.10;;;;;;;;;;5103839;27;20223;-49
2023/02/06 09:45:45;;;;;;;4.57;1.73;;;;;;;;;;5102306;27;20633;-49
2023/02/06 09:48:27;;;;;;;3.13;1.77;;;;;;;;;;5107339;27;20185;-49
2023/02/06 09:51:19;;;;;;;3.27;1.73;;;;;;;;;;5100619;27;20286;-49
2023/02/06 09:54:04;;;;;;;4.20;1.70;;;;;;;;;;5107845;27;20628;-49
2023/02/06 09:56:34;;;;;;;3.30;2.03;;;;;;;;;;5114625;27;20811;-49
2023/02/06 09:59:20;;;;;;;3.37;2.20;;;;;;;;;;5104276;27;20657;-49
2023/02/06 10:02:02;;;;;;;5.33;2.13;;;;;;;;;;5108511;27;20621;-49
2023/02/06 10:04:35;;;;;;;2.57;1.60;;;;;;;;;;5108735;27;20528;-49
2023/02/06 10:07:21;;;;;;;3.97;1.70;;;;;;;;;;5103464;28;20847;-49
2023/02/06 10:10:02;;;;;;;3.57;1.50;;;;;;;;;;5088865;27;20293;-48
2023/02/06 10:12:46;;;;;;;3.47;1.97;;;;;;;;;;5106501;27;20184;-45
2023/02/06 10:15:25;;;;;;;2.80;1.60;;;;;;;;;;5111975;27;20188;-49
2023/02/06 10:18:01;;;;;;;7.10;1.90;;;;;;;;;;5109456;27;20688;-48
2023/02/06 10:20:41;;;;;;;3.50;1.70;;;;;;;;;;5092908;28;20263;-45
2023/02/06 10:23:15;;;;;;;2.70;1.77;;;;;;;;;;5111716;27;20781;-46
2023/02/06 10:25:51;;;;;;;2.57;1.57;;;;;;;;;;5115141;27;20196;-45
2023/02/06 10:28:29;;;;;;;2.93;1.70;;;;;;;;;;5111712;27;20184;-45
2023/02/06 10:31:20;;;;;;;3.53;1.83;;;;;;;;;;5111514;27;20288;-46
2023/02/06 10:34:07;;;;;;;4.23;1.67;;;;;;;;;;5114197;28;20674;-45
2023/02/06 10:36:50;;;;;;;3.83;1.83;;;;;;;;;;5114108;28;20243;-45
2023/02/06 10:39:57;;;;;;;3.50;1.80;;;;;;;;;;5116942;28;20259;-45
2023/02/06 10:42:56;;;;;;;3.77;1.87;;;;;;;;;;4996315;28;20214;-48
2023/02/06 10:45:44;;;;;;;3.70;1.90;;;;;;;;;;5004119;28;20196;-45
2023/02/06 10:48:34;;;;;;;5.73;2.10;;;;;;;;;;5085730;28;20220;-47
2023/02/06 10:51:21;;;;;;;2.33;1.77;;;;;;;;;;5104934;28;20657;-45
2023/02/06 10:53:53;;;;;;;4.53;2.07;;;;;;;;;;5087936;28;20200;-45
2023/02/06 10:56:25;;;;;;;2.97;2.03;;;;;;;;;;5088569;28;20194;-49
2023/02/06 10:58:59;;;;;;;3.40;1.90;;;;;;;;;;5086697;28;20638;-49
2023/02/06 11:01:36;;;;;;;4.83;2.13;;;;;;;;;;5110248;28;20212;-49
2023/02/06 11:04:33;;;;;;;4.20;2.23;;;;;;;;;;5103714;28;20236;-50
2023/02/06 11:07:09;;;;;;;3.43;2.27;;;;;;;;;;5094328;28;21000;-46
2023/02/06 11:09:43;;;;;;;5.73;2.40;;;;;;;;;;5115549;28;20275;-45
2023/02/06 11:12:31;;;;;;;4.03;2.23;;;;;;;;;;5106534;28;20243;-46
2023/02/06 11:15:04;;;;;;;3.33;2.10;;;;;;;;;;5113719;28;20195;-46
2023/02/06 11:17:36;;;;;;;4.63;2.27;;;;;;;;;;5089296;28;20226;-49
2023/02/06 11:20:20;;;;;;;4.83;2.60;;;;;;;;;;5107463;28;20187;-46
2023/02/06 11:22:50;;;;;;;4.37;2.30;;;;;;;;;;5110734;28;20189;-46
2023/02/06 11:25:33;;;;;;;3.83;2.40;;;;;;;;;;5092390;27;20288;-46
2023/02/06 11:28:27;;;;;;;3.87;2.17;;;;;;;;;;5104986;27;20192;-46
2023/02/06 11:30:59;;;;;;;4.23;2.67;;;;;;;;;;5110870;27;20618;-49
2023/02/06 11:33:46;;;;;;;4.60;2.20;;;;;;;;;;5086938;28;20195;-49
2023/02/06 11:36:41;;;;;;;5.17;2.20;;;;;;;;;;5110827;27;20213;-49
2023/02/06 11:39:29;;;;;;;2.83;2.00;;;;;;;;;;5113805;27;20212;-49
2023/02/06 11:42:04;;;;;;;3.50;2.20;;;;;;;;;;5105528;27;20220;-49
2023/02/06 11:44:40;;;;;;;5.80;2.63;;;;;;;;;;5096651;28;20207;-49
2023/02/06 11:47:27;;;;;;;3.67;2.30;;;;;;;;;;5089310;28;20759;-49
2023/02/06 11:50:11;;;;;;;6.23;2.47;;;;;;;;;;5093709;28;20626;-49
2023/02/06 11:52:45;;;;;;;4.77;2.33;;;;;;;;;;5095110;28;20209;-46
2023/02/06 11:55:32;;;;;;;3.47;2.27;;;;;;;;;;5086664;28;20200;-45
2023/02/06 11:58:21;;;;;;;6.10;2.50;;;;;;;;;;5081379;28;20201;-46
2023/02/06 12:00:50;;;;;;;3.57;2.37;;;;;;;;;;5084082;28;20664;-46
2023/02/06 12:03:35;;;;;;;6.73;2.47;;;;;;;;;;5088546;28;20196;-47
2023/02/06 12:06:11;;;;;;;3.97;2.13;;;;;;;;;;5092197;28;20236;-47
2023/02/06 12:08:42;;;;;;;8.57;2.67;;;;;;;;;;5090102;28;20266;-46
2023/02/06 12:11:19;;;;;;;4.33;2.60;;;;;;;;;;5088213;28;20244;-49
2023/02/06 12:13:54;;;;;;;5.40;2.40;;;;;;;;;;5094960;28;20285;-48
2023/02/06 12:16:33;;;;;;;4.27;2.50;;;;;;;;;;5090467;28;20199;-48
2023/02/06 12:19:09;;;;;;;5.60;2.70;;;;;;;;;;5093846;28;20209;-48
2023/02/06 12:21:45;;;;;;;5.47;2.53;;;;;;;;;;5091610;28;20208;-45
2023/02/06 12:24:28;;;;;;;4.90;2.50;;;;;;;;;;5093339;28;20208;-46
2023/02/06 12:27:04;;;;;;;6.33;2.83;;;;;;;;;;5085276;28;20180;-46
2023/02/06 12:29:37;;;;;;;5.97;2.60;;;;;;;;;;5086295;28;20223;-46
2023/02/06 12:32:17;;;;;;;6.63;2.73;;;;;;;;;;5088554;28;20227;-46
2023/02/06 12:34:54;;;;;;;4.87;2.53;;;;;;;;;;5083826;28;20189;-45
2023/02/06 12:37:30;;;;;;;5.57;3.13;;;;;;;;;;5086589;28;20903;-45
2023/02/06 12:40:00;;;;;;;6.57;3.00;;;;;;;;;;5079436;28;20205;-45
2023/02/06 12:42:31;;;;;;;5.27;2.20;;;;;;;;;;5076859;28;20261;-48
2023/02/06 12:45:10;;;;;;;5.87;2.93;;;;;;;;;;5089406;28;20549;-48
2023/02/06 12:48:00;;;;;;;6.33;3.20;;;;;;;;;;5076172;28;20228;-45
2023/02/06 12:50:39;;;;;;;7.43;3.17;;;;;;;;;;5084296;28;20337;-46
2023/02/06 12:53:11;;;;;;;6.80;3.30;;;;;;;;;;5073577;28;20182;-46
2023/02/06 12:55:58;;;;;;;6.53;3.13;;;;;;;;;;5088599;28;20714;-46
2023/02/06 12:58:39;;;;;;;4.37;2.63;;;;;;;;;;5084035;28;20196;-45
2023/02/06 13:01:29;;;;;;;5.60;2.47;;;;;;;;;;5077602;28;20707;-49
2023/02/06 13:04:07;;;;;;;6.00;3.17;;;;;;;;;;5089416;28;20193;-48
2023/02/06 13:06:59;;;;;;;5.17;3.00;;;;;;;;;;5080904;28;20242;-47
2023/02/06 13:09:33;;;;;;;7.77;2.83;;;;;;;;;;5091328;28;20197;-49
2023/02/06 13:12:15;;;;;;;6.77;2.83;;;;;;;;;;5086881;28;20224;-46
2023/02/06 13:14:54;;;;;;;3.37;2.20;;;;;;;;;;5088911;28;20200;-45
2023/02/06 13:17:31;;;;;;;7.00;2.80;;;;;;;;;;5090127;28;20193;-46
2023/02/06 13:20:17;;;;;;;9.93;3.97;;;;;;;;;;5096486;28;20205;-44
2023/02/06 13:23:14;;;;;;;7.77;3.40;;;;;;;;;;5071855;28;20204;-45
2023/02/06 13:25:48;;;;;;;7.83;3.23;;;;;;;;;;5089286;28;20192;-45
2023/02/06 13:28:27;;;;;;;6.33;3.10;;;;;;;;;;5094552;28;20638;-45
2023/02/06 13:31:06;;;;;;;8.83;2.80;;;;;;;;;;5088183;28;20205;-45
2023/02/06 13:33:50;;;;;;;8.87;3.47;;;;;;;;;;5091630;28;20219;-45
2023/02/06 13:36:48;;;;;;;8.13;3.30;;;;;;;;;;5078425;28;20206;-45
2023/02/06 13:39:24;;;;;;;4.43;2.70;;;;;;;;;;5093388;28;20204;-45
2023/02/06 13:42:44;;;;;;;7.33;3.10;;;;;;;;;;5087090;28;20332;-49
2023/02/06 13:45:17;;;;;;;8.17;3.17;;;;;;;;;;5022841;28;20202;-48
2023/02/06 13:48:05;;;;;;;5.30;2.80;;;;;;;;;;5074836;28;20211;-48
2023/02/06 13:50:53;;;;;;;8.70;2.93;;;;;;;;;;5089848;28;20200;-48
2023/02/06 13:53:41;;;;;;;6.17;2.70;;;;;;;;;;5086884;28;20200;-48
2023/02/06 13:56:29;;;;;;;6.40;3.03;;;;;;;;;;5088479;28;20189;-48
2023/02/06 13:59:05;;;;;;;14.93;3.77;;;;;;;;;;5085671;28;20193;-47
2023/02/06 14:01:41;;;;;;;6.90;3.33;;;;;;;;;;5076755;28;20212;-44
2023/02/06 14:04:16;;;;;;;8.47;3.30;;;;;;;;;;5072322;28;20552;-45
2023/02/06 14:07:04;;;;;;;8.03;2.80;;;;;;;;;;5089906;28;20184;-45
2023/02/06 14:12:55;;;;;;;6.70;2.87;;;;;;;;;;5093951;28;20224;-48
2023/02/06 14:15:34;;;;;;;6.57;2.47;;;;;;;;;;5092348;28;20189;-49
2023/02/06 14:18:31;;;;;;;6.30;2.53;;;;;;;;;;5089155;28;20204;-49
2023/02/06 14:21:31;;;;;;;6.53;2.70;;;;;;;;;;5095080;28;20563;-48
2023/02/06 14:24:22;;;;;;;5.90;2.30;;;;;;;;;;5088861;28;20216;-48
2023/02/06 14:27:12;;;;;;;6.37;2.40;;;;;;;;;;5092801;28;20670;-45
2023/02/06 14:29:55;;;;;;;4.97;2.07;;;;;;;;;;5096694;28;20185;-45
2023/02/06 14:32:39;;;;;;;6.30;2.60;;;;;;;;;;5095433;28;20213;-45
2023/02/06 14:35:19;;;;;;;5.93;2.30;;;;;;;;;;5076298;28;20189;-45
2023/02/06 14:38:13;;;;;;;5.83;2.30;;;;;;;;;;5084522;28;20197;-45
2023/02/06 14:40:43;;;;;;;4.80;2.10;;;;;;;;;;5089611;28;20184;-48
2023/02/06 14:43:18;;;;;;;3.27;1.97;;;;;;;;;;5089189;28;20254;-48
2023/02/06 14:45:55;;;;;;;4.47;2.10;;;;;;;;;;5063640;28;20208;-45
2023/02/06 14:48:56;;;;;;;5.07;2.10;;;;;;;;;;5082790;28;20613;-45
2023/02/06 14:51:38;;;;;;;5.83;2.10;;;;;;;;;;5096728;28;20257;-45
2023/02/06 14:54:28;;;;;;;5.57;2.20;;;;;;;;;;5066305;28;20193;-45
2023/02/06 14:57:03;;;;;;;6.40;2.60;;;;;;;;;;5092260;28;20615;-48
2023/02/06 14:59:36;;;;;;;5.63;2.43;;;;;;;;;;5091815;28;20276;-47
2023/02/06 15:02:16;;;;;;;4.33;2.17;;;;;;;;;;5098979;28;20197;-45
2023/02/06 15:04:48;;;;;;;5.50;2.57;;;;;;;;;;5100730;28;20188;-45
2023/02/06 15:07:46;;;;;;;6.13;2.33;;;;;;;;;;5094148;28;20212;-45
2023/02/06 15:10:17;;;;;;;5.17;2.03;;;;;;;;;;5084565;28;20817;-45
2023/02/06 15:12:55;;;;;;;3.83;1.80;;;;;;;;;;5091313;28;20682;-44
2023/02/06 15:15:29;;;;;;;4.83;2.30;;;;;;;;;;5094881;28;20569;-45
2023/02/06 15:18:05;;;;;;;4.93;2.50;;;;;;;;;;5095585;28;20612;-45
2023/02/06 15:20:44;;;;;;;6.37;2.50;;;;;;;;;;5078606;28;20252;-45
2023/02/06 15:23:19;;;;;;;7.47;2.30;;;;;;;;;;5077212;28;20277;-45
2023/02/06 15:26:11;;;;;;;4.13;2.30;;;;;;;;;;5094550;28;20220;-45
2023/02/06 15:28:43;;;;;;;5.63;2.10;;;;;;;;;;5093403;28;20610;-44
2023/02/06 15:31:21;;;;;;;4.63;1.97;;;;;;;;;;5088902;28;20434;-48
2023/02/06 15:33:55;;;;;;;4.40;2.17;;;;;;;;;;5069050;28;20185;-49
2023/02/06 15:36:31;;;;;;;5.23;2.23;;;;;;;;;;5094958;28;20526;-45